PWSweather.com
Personal Weather Stations
Station Observations
OBERT
Bodensee Hinterland, OberteuringenDE

Bodensee HinterlandOberteuringenDE

Lat: 47.714675, Lon: 9.44447

Elevation: 1427

Station Type: Wunder Weather Station

High Low Average
Temperature 50.7°F10.4°C 35.2°F1.8°C 41.4°F5.2°C
Dew Point 41.9°F5.5°C 35.2°F1.8°C 39.2°F4.0°C
Winds 5.7 mph 9.2 kmh Calm Calm 1.0 mph ESE1.6 kmh ESE
Wind Gusts 11.2 mph18.0 kmh -- 3.0 mph4.8 kmh
Humidity 100% 67% 92%
Pressure 29.80 in1009.1 mb 29.62 in1003.0 mb -
Precipitation 0.00 in0.0 mm - -
Hour Temp Dew Point Humidity Winds Wind Gusts Pressure Precip Precip Rate Daily Precip Total
12:00 AM 40.1°F4.5°C 40.1°F4.5°C 100% Calm Calm -- 29.77 in1008.1 mb 0.00 in0.0 mm 0.00 in0.0 mm 0.00 in0.0 mm
12:30 AM 40.6°F4.8°C 40.6°F4.8°C 100% 0.2 mph N0.3 kmh N 2.8 mph4.5 kmh 29.79 in1008.8 mb 0.00 in0.0 mm 0.00 in0.0 mm 0.00 in0.0 mm
01:00 AM 40.6°F4.8°C 40.6°F4.8°C 100% 1.5 mph 2.4 kmh 9.3 mph15.0 kmh 29.79 in1008.8 mb 0.00 in0.0 mm 0.00 in0.0 mm 0.00 in0.0 mm
01:30 AM 40.6°F4.8°C 40.6°F4.8°C 100% 0.5 mph N0.8 kmh N 3.7 mph6.0 kmh 29.79 in1008.8 mb 0.00 in0.0 mm 0.00 in0.0 mm 0.00 in0.0 mm
02:00 AM 40.6°F4.8°C 40.6°F4.8°C 100% Calm Calm 0.6 mph1.0 kmh 29.79 in1008.8 mb 0.00 in0.0 mm 0.00 in0.0 mm 0.00 in0.0 mm
02:30 AM 40.8°F4.9°C 40.8°F4.9°C 100% Calm Calm -- 29.79 in1008.8 mb 0.00 in0.0 mm 0.00 in0.0 mm 0.00 in0.0 mm
03:00 AM 40.8°F4.9°C 40.8°F4.9°C 100% Calm Calm 2.5 mph4.0 kmh 29.79 in1008.8 mb 0.00 in0.0 mm 0.00 in0.0 mm 0.00 in0.0 mm
03:30 AM 41.1°F5.1°C 41.1°F5.1°C 100% 0.3 mph N0.5 kmh N 5.9 mph9.5 kmh 29.80 in1009.1 mb 0.00 in0.0 mm 0.00 in0.0 mm 0.00 in0.0 mm
04:00 AM 41.0°F5.0°C 41.0°F5.0°C 100% 3.1 mph N5.0 kmh N 7.1 mph11.4 kmh 29.79 in1008.8 mb 0.00 in0.0 mm 0.00 in0.0 mm 0.00 in0.0 mm
04:30 AM 40.6°F4.8°C 40.6°F4.8°C 100% Calm Calm 0.6 mph1.0 kmh 29.80 in1009.1 mb 0.00 in0.0 mm 0.00 in0.0 mm 0.00 in0.0 mm
05:00 AM 41.0°F5.0°C 41.0°F5.0°C 100% 0.1 mph N0.2 kmh N 5.0 mph8.0 kmh 29.80 in1009.1 mb 0.00 in0.0 mm 0.00 in0.0 mm 0.00 in0.0 mm
05:30 AM 39.7°F4.3°C 39.7°F4.3°C 100% Calm Calm -- 29.79 in1008.8 mb 0.00 in0.0 mm 0.00 in0.0 mm 0.00 in0.0 mm
06:00 AM 40.1°F4.5°C 40.1°F4.5°C 100% 3.2 mph 5.1 kmh 5.0 mph8.0 kmh 29.79 in1008.8 mb 0.00 in0.0 mm 0.00 in0.0 mm 0.00 in0.0 mm
06:30 AM 40.1°F4.5°C 39.0°F3.9°C 95% 4.6 mph N7.4 kmh N 10.6 mph17.1 kmh 29.79 in1008.8 mb 0.00 in0.0 mm 0.00 in0.0 mm 0.00 in0.0 mm
07:00 AM 39.7°F4.3°C 37.8°F3.2°C 92% 4.6 mph 7.4 kmh 11.2 mph18.0 kmh 29.80 in1009.1 mb 0.00 in0.0 mm 0.00 in0.0 mm 0.00 in0.0 mm
07:30 AM 37.5°F3.1°C 36.8°F2.7°C 96% Calm Calm -- 29.80 in1009.1 mb 0.00 in0.0 mm 0.00 in0.0 mm 0.00 in0.0 mm
08:00 AM 37.4°F3.0°C 36.9°F2.7°C 98% Calm Calm 2.8 mph4.5 kmh 29.79 in1008.8 mb 0.00 in0.0 mm 0.00 in0.0 mm 0.00 in0.0 mm
08:30 AM 37.9°F3.3°C 37.4°F3.0°C 98% Calm Calm -- 29.80 in1009.1 mb 0.00 in0.0 mm 0.00 in0.0 mm 0.00 in0.0 mm
09:00 AM 40.8°F4.9°C 40.5°F4.7°C 99% Calm Calm -- 29.80 in1009.1 mb 0.00 in0.0 mm 0.00 in0.0 mm 0.00 in0.0 mm
09:30 AM 43.7°F6.5°C 39.6°F4.2°C 85% Calm Calm -- 29.78 in1008.5 mb 0.00 in0.0 mm 0.00 in0.0 mm 0.00 in0.0 mm
10:00 AM 44.9°F7.2°C 40.5°F4.7°C 84% Calm Calm 1.8 mph2.9 kmh 29.78 in1008.5 mb 0.00 in0.0 mm 0.00 in0.0 mm 0.00 in0.0 mm
10:30 AM 45.6°F7.6°C 40.2°F4.6°C 81% Calm Calm -- 29.79 in1008.8 mb 0.00 in0.0 mm 0.00 in0.0 mm 0.00 in0.0 mm
11:00 AM 46.9°F8.3°C 40.9°F4.9°C 79% 0.1 mph N0.2 kmh N 5.3 mph8.5 kmh 29.77 in1008.1 mb 0.00 in0.0 mm 0.00 in0.0 mm 0.00 in0.0 mm
11:12 AM 47.3°F8.5°C 39.7°F4.3°C 75% 2.9 mph 4.7 kmh 8.4 mph13.5 kmh 29.76 in1007.8 mb 0.00 in0.0 mm 0.00 in0.0 mm 0.00 in0.0 mm
11:42 AM 45.6°F7.6°C 38.0°F3.3°C 74% 5.3 mph 8.5 kmh 10.3 mph16.6 kmh 29.74 in1007.1 mb 0.00 in0.0 mm 0.00 in0.0 mm 0.00 in0.0 mm
12:12 PM 44.7°F7.1°C 38.4°F3.6°C 78% 5.7 mph N9.2 kmh N 10.0 mph16.1 kmh 29.72 in1006.4 mb 0.00 in0.0 mm 0.00 in0.0 mm 0.00 in0.0 mm
12:42 PM 45.5°F7.5°C 38.6°F3.7°C 76% 1.0 mph 1.6 kmh 5.3 mph8.5 kmh 29.73 in1006.8 mb 0.00 in0.0 mm 0.00 in0.0 mm 0.00 in0.0 mm
01:12 PM 48.7°F9.3°C 39.8°F4.3°C 71% 0.8 mph N1.3 kmh N 3.1 mph5.0 kmh 29.72 in1006.4 mb 0.00 in0.0 mm 0.00 in0.0 mm 0.00 in0.0 mm
01:42 PM 50.7°F10.4°C 40.5°F4.7°C 67% 1.6 mph 2.6 kmh 3.7 mph6.0 kmh 29.71 in1006.1 mb 0.00 in0.0 mm 0.00 in0.0 mm 0.00 in0.0 mm
02:12 PM 48.5°F9.2°C 39.6°F4.2°C 71% Calm Calm 8.4 mph13.5 kmh 29.70 in1005.8 mb 0.00 in0.0 mm 0.00 in0.0 mm 0.00 in0.0 mm
02:42 PM 49.6°F9.8°C 40.3°F4.6°C 70% Calm Calm 2.8 mph4.5 kmh 29.69 in1005.4 mb 0.00 in0.0 mm 0.00 in0.0 mm 0.00 in0.0 mm
03:12 PM 46.4°F8.0°C 40.3°F4.6°C 79% Calm Calm -- 29.70 in1005.8 mb 0.00 in0.0 mm 0.00 in0.0 mm 0.00 in0.0 mm
03:42 PM 45.1°F7.3°C 40.9°F4.9°C 85% Calm Calm -- 29.70 in1005.8 mb 0.00 in0.0 mm 0.00 in0.0 mm 0.00 in0.0 mm
04:12 PM 46.2°F7.9°C 41.9°F5.5°C 84% Calm Calm -- 29.69 in1005.4 mb 0.00 in0.0 mm 0.00 in0.0 mm 0.00 in0.0 mm
04:42 PM 41.3°F5.2°C 38.1°F3.4°C 88% Calm Calm -- 29.68 in1005.1 mb 0.00 in0.0 mm 0.00 in0.0 mm 0.00 in0.0 mm
05:12 PM 36.8°F2.7°C 36.8°F2.7°C 100% Calm Calm -- 29.68 in1005.1 mb 0.00 in0.0 mm 0.00 in0.0 mm 0.00 in0.0 mm
05:42 PM 35.2°F1.8°C 35.2°F1.8°C 100% Calm Calm -- 29.67 in1004.7 mb 0.00 in0.0 mm 0.00 in0.0 mm 0.00 in0.0 mm
06:12 PM 35.2°F1.8°C 35.2°F1.8°C 100% Calm Calm -- 29.68 in1005.1 mb 0.00 in0.0 mm 0.00 in0.0 mm 0.00 in0.0 mm
06:42 PM 37.5°F3.1°C 37.5°F3.1°C 100% Calm Calm -- 29.67 in1004.7 mb 0.00 in0.0 mm 0.00 in0.0 mm 0.00 in0.0 mm
07:12 PM 37.7°F3.2°C 37.7°F3.2°C 100% Calm Calm -- 29.67 in1004.7 mb 0.00 in0.0 mm 0.00 in0.0 mm 0.00 in0.0 mm
07:42 PM 37.4°F3.0°C 37.4°F3.0°C 100% Calm Calm -- 29.66 in1004.4 mb 0.00 in0.0 mm 0.00 in0.0 mm 0.00 in0.0 mm
08:12 PM 37.9°F3.3°C 37.9°F3.3°C 100% Calm Calm -- 29.66 in1004.4 mb 0.00 in0.0 mm 0.00 in0.0 mm 0.00 in0.0 mm
08:42 PM 37.9°F3.3°C 37.9°F3.3°C 100% Calm Calm -- 29.66 in1004.4 mb 0.00 in0.0 mm 0.00 in0.0 mm 0.00 in0.0 mm
09:12 PM 38.4°F3.6°C 38.4°F3.6°C 100% 1.5 mph S2.4 kmh S 3.1 mph5.0 kmh 29.67 in1004.7 mb 0.00 in0.0 mm 0.00 in0.0 mm 0.00 in0.0 mm
09:42 PM 38.8°F3.8°C 38.8°F3.8°C 100% Calm Calm -- 29.66 in1004.4 mb 0.00 in0.0 mm 0.00 in0.0 mm 0.00 in0.0 mm
10:12 PM 38.4°F3.6°C 38.4°F3.6°C 100% Calm Calm -- 29.65 in1004.1 mb 0.00 in0.0 mm 0.00 in0.0 mm 0.00 in0.0 mm
10:42 PM 38.1°F3.4°C 38.1°F3.4°C 100% Calm Calm -- 29.64 in1003.7 mb 0.00 in0.0 mm 0.00 in0.0 mm 0.00 in0.0 mm
11:12 PM 38.6°F3.7°C 38.6°F3.7°C 100% Calm Calm 0.3 mph0.5 kmh 29.63 in1003.4 mb 0.00 in0.0 mm 0.00 in0.0 mm 0.00 in0.0 mm
11:42 PM 37.2°F2.9°C 37.2°F2.9°C 100% Calm Calm -- 29.62 in1003.0 mb 0.00 in0.0 mm 0.00 in0.0 mm 0.00 in0.0 mm